Time;durP1;ratioP1;P1;durP2;ratioP2;P2;SDS_P1;SDS_P2;PMS_P1;PMS_P2;Temp;Humidity;BMP_temperature;BMP_pressure;BME280_temperature;BME280_humidity;BME280_pressure;Samples;Min_cycle;Max_cycle;Signal;HPM_P1;HPM_P2
2023/03/18 00:00:08;;;;;;;5.60;4.78;;;;;;;;;;5073796;28;20407;-86
2023/03/18 00:02:34;;;;;;;5.90;4.40;;;;;;;;;;5073699;28;20398;-86
2023/03/18 00:05:00;;;;;;;5.53;4.70;;;;;;;;;;5073822;28;20379;-87
2023/03/18 00:07:26;;;;;;;6.35;4.47;;;;;;;;;;5073706;28;20425;-87
2023/03/18 00:09:52;;;;;;;6.07;4.38;;;;;;;;;;5073839;28;20388;-86
2023/03/18 00:12:19;;;;;;;5.05;4.45;;;;;;;;;;5055725;28;20465;-86
2023/03/18 00:14:45;;;;;;;5.07;4.57;;;;;;;;;;5073779;28;20497;-86
2023/03/18 00:17:11;;;;;;;6.75;4.57;;;;;;;;;;5073752;28;20407;-86
2023/03/18 00:19:37;;;;;;;7.10;4.38;;;;;;;;;;5073387;28;20433;-86
2023/03/18 00:22:03;;;;;;;5.18;4.40;;;;;;;;;;5073537;28;20792;-87
2023/03/18 00:24:29;;;;;;;4.40;4.00;;;;;;;;;;5073563;28;20372;-87
2023/03/18 00:26:56;;;;;;;4.65;4.25;;;;;;;;;;5073534;28;20384;-86
2023/03/18 00:29:22;;;;;;;4.93;4.35;;;;;;;;;;5072999;28;20427;-87
2023/03/18 00:31:48;;;;;;;4.85;4.45;;;;;;;;;;5073324;28;20467;-85
2023/03/18 00:34:14;;;;;;;4.80;4.30;;;;;;;;;;5073319;28;20384;-87
2023/03/18 00:36:41;;;;;;;4.80;4.05;;;;;;;;;;5068697;28;20392;-86
2023/03/18 00:39:08;;;;;;;4.57;4.05;;;;;;;;;;5063404;28;20870;-86
2023/03/18 00:41:36;;;;;;;4.55;4.15;;;;;;;;;;5087443;22;20471;-84
2023/03/18 00:44:03;;;;;;;5.45;4.13;;;;;;;;;;5072042;28;20944;-84
2023/03/18 00:46:31;;;;;;;4.90;4.50;;;;;;;;;;5072055;28;20387;-84
2023/03/18 00:48:59;;;;;;;5.35;4.70;;;;;;;;;;5072422;28;20942;-83
2023/03/18 00:51:26;;;;;;;5.10;4.60;;;;;;;;;;5072269;28;20383;-84
2023/03/18 00:53:54;;;;;;;5.28;4.75;;;;;;;;;;5072507;28;20383;-83
2023/03/18 00:56:21;;;;;;;5.15;4.65;;;;;;;;;;5072473;28;21202;-84
2023/03/18 00:58:47;;;;;;;6.45;4.15;;;;;;;;;;5072297;28;20395;-84
2023/03/18 01:01:13;;;;;;;5.30;4.65;;;;;;;;;;5072153;28;20403;-84
2023/03/18 01:03:43;;;;;;;6.22;4.10;;;;;;;;;;5072219;28;20792;-83
2023/03/18 01:06:10;;;;;;;5.23;4.27;;;;;;;;;;5072285;28;20371;-84
2023/03/18 01:08:37;;;;;;;4.88;4.22;;;;;;;;;;5072464;28;20793;-84
2023/03/18 01:11:03;;;;;;;4.85;4.20;;;;;;;;;;5072041;28;20386;-84
2023/03/18 01:13:30;;;;;;;4.22;3.90;;;;;;;;;;5071960;28;20437;-84
2023/03/18 01:15:56;;;;;;;5.23;3.97;;;;;;;;;;5053944;28;20999;-83
2023/03/18 01:18:22;;;;;;;4.97;4.40;;;;;;;;;;5072038;28;20467;-84
2023/03/18 01:20:49;;;;;;;4.45;4.10;;;;;;;;;;5071677;28;20458;-83
2023/03/18 01:23:16;;;;;;;4.68;4.13;;;;;;;;;;5071821;28;20376;-83
2023/03/18 01:25:43;;;;;;;4.65;4.13;;;;;;;;;;5071973;28;20380;-83
2023/03/18 01:28:09;;;;;;;4.93;4.30;;;;;;;;;;5071762;28;20903;-84
2023/03/18 01:30:37;;;;;;;5.45;4.75;;;;;;;;;;5071811;28;20869;-84
2023/03/18 01:33:03;;;;;;;5.72;4.13;;;;;;;;;;5071511;28;20392;-83
2023/03/18 01:35:29;;;;;;;4.72;4.28;;;;;;;;;;5071641;28;20391;-84
2023/03/18 01:37:56;;;;;;;5.45;4.15;;;;;;;;;;5071273;28;20387;-83
2023/03/18 01:40:23;;;;;;;5.70;4.20;;;;;;;;;;5071634;28;20533;-84
2023/03/18 01:42:55;;;;;;;7.43;4.47;;;;;;;;;;5071190;28;21108;-84
2023/03/18 01:45:24;;;;;;;4.93;4.35;;;;;;;;;;5058471;28;20379;-83
2023/03/18 01:47:50;;;;;;;4.97;4.43;;;;;;;;;;5071521;28;20845;-84
2023/03/18 01:50:21;;;;;;;5.00;4.60;;;;;;;;;;5071359;28;20473;-83
2023/03/18 01:52:49;;;;;;;5.88;4.50;;;;;;;;;;5070821;28;20379;-83
2023/03/18 01:55:18;;;;;;;4.88;4.40;;;;;;;;;;5071239;28;20410;-84
2023/03/18 01:57:44;;;;;;;5.25;4.75;;;;;;;;;;5071447;28;20387;-84
2023/03/18 02:00:11;;;;;;;6.03;5.43;;;;;;;;;;5071046;28;20473;-84
2023/03/18 02:02:39;;;;;;;6.07;5.28;;;;;;;;;;5071031;28;20418;-84
2023/03/18 02:05:06;;;;;;;6.10;5.40;;;;;;;;;;5071312;28;20841;-84
2023/03/18 02:07:33;;;;;;;6.10;5.50;;;;;;;;;;5071157;28;20379;-84
2023/03/18 02:10:01;;;;;;;5.97;5.47;;;;;;;;;;5071285;28;20386;-84
2023/03/18 02:12:32;;;;;;;6.10;5.35;;;;;;;;;;5071067;28;20415;-84
2023/03/18 02:14:59;;;;;;;5.85;5.28;;;;;;;;;;5071660;28;20437;-84
2023/03/18 02:17:28;;;;;;;7.45;5.25;;;;;;;;;;5074297;28;20380;-84
2023/03/18 02:19:56;;;;;;;5.75;5.18;;;;;;;;;;5078245;28;20411;-84
2023/03/18 02:22:22;;;;;;;5.60;5.00;;;;;;;;;;5077263;28;20380;-84
2023/03/18 02:25:09;;;;;;;5.15;4.57;;;;;;;;;;5086575;28;20390;-84
2023/03/18 02:27:37;;;;;;;6.53;4.70;;;;;;;;;;5083072;28;20410;-84
2023/03/18 02:30:06;;;;;;;5.70;5.07;;;;;;;;;;5077068;28;20383;-83
2023/03/18 02:32:36;;;;;;;6.90;6.30;;;;;;;;;;5074053;28;20407;-84
2023/03/18 02:35:03;;;;;;;5.03;4.60;;;;;;;;;;5072649;28;20914;-84
2023/03/18 02:37:29;;;;;;;5.60;4.10;;;;;;;;;;5068261;28;20411;-83
2023/03/18 02:39:56;;;;;;;6.00;4.10;;;;;;;;;;5063644;28;20819;-84
2023/03/18 02:42:31;;;;;;;4.60;4.20;;;;;;;;;;5069879;28;20408;-84
2023/03/18 02:44:58;;;;;;;6.03;4.78;;;;;;;;;;5069075;28;20433;-83
2023/03/18 02:47:26;;;;;;;5.22;4.72;;;;;;;;;;5070290;28;20379;-84
2023/03/18 02:49:52;;;;;;;5.90;5.30;;;;;;;;;;5069193;28;20427;-84
2023/03/18 02:52:18;;;;;;;5.63;5.03;;;;;;;;;;5069411;28;20546;-84
2023/03/18 02:54:45;;;;;;;6.68;4.95;;;;;;;;;;5069282;28;20470;-84
2023/03/18 02:57:11;;;;;;;5.30;4.57;;;;;;;;;;5070038;28;20915;-84
2023/03/18 02:59:37;;;;;;;5.55;4.90;;;;;;;;;;5069807;28;20412;-84
2023/03/18 03:02:03;;;;;;;5.60;5.10;;;;;;;;;;5069710;28;20388;-83
2023/03/18 03:04:29;;;;;;;5.53;4.78;;;;;;;;;;5072952;28;20379;-84
2023/03/18 03:06:56;;;;;;;5.45;4.78;;;;;;;;;;5073446;28;20440;-84
2023/03/18 03:09:22;;;;;;;7.40;4.93;;;;;;;;;;5073349;28;20384;-83
2023/03/18 03:11:48;;;;;;;4.65;4.25;;;;;;;;;;5073131;28;20383;-83
2023/03/18 03:14:15;;;;;;;5.18;4.68;;;;;;;;;;5073155;28;20721;-83
2023/03/18 03:16:42;;;;;;;5.20;4.50;;;;;;;;;;5073227;28;20858;-83
2023/03/18 03:19:08;;;;;;;4.40;4.00;;;;;;;;;;5073044;28;20376;-83
2023/03/18 03:21:34;;;;;;;4.97;4.47;;;;;;;;;;5072939;28;20756;-83
2023/03/18 03:24:02;;;;;;;4.78;4.00;;;;;;;;;;5073094;28;20384;-83
2023/03/18 03:26:29;;;;;;;5.75;4.20;;;;;;;;;;5072995;28;20368;-83
2023/03/18 03:28:55;;;;;;;6.57;4.82;;;;;;;;;;5072944;28;20390;-83
2023/03/18 03:31:22;;;;;;;5.38;4.60;;;;;;;;;;5072719;28;20927;-83
2023/03/18 03:33:48;;;;;;;4.95;4.45;;;;;;;;;;5072888;28;20387;-84
2023/03/18 03:36:15;;;;;;;5.47;4.17;;;;;;;;;;5072788;28;20384;-83
2023/03/18 03:38:42;;;;;;;5.18;4.60;;;;;;;;;;5072541;28;20459;-83
2023/03/18 03:41:09;;;;;;;5.45;4.95;;;;;;;;;;5072625;28;20896;-83
2023/03/18 03:43:36;;;;;;;5.00;4.27;;;;;;;;;;4972761;28;2363003;-83
2023/03/18 03:46:02;;;;;;;4.70;4.20;;;;;;;;;;5073864;28;20396;-83
2023/03/18 03:48:29;;;;;;;5.95;4.68;;;;;;;;;;5073855;28;20445;-83
2023/03/18 03:50:56;;;;;;;5.78;4.90;;;;;;;;;;5073782;28;20386;-83
2023/03/18 03:53:23;;;;;;;6.75;4.93;;;;;;;;;;5073553;28;20426;-83
2023/03/18 03:55:49;;;;;;;4.78;4.38;;;;;;;;;;5073673;28;20390;-84
2023/03/18 03:58:15;;;;;;;5.43;4.88;;;;;;;;;;5073680;28;20811;-83
2023/03/18 04:00:41;;;;;;;5.27;4.77;;;;;;;;;;5072673;28;20419;-83
2023/03/18 04:03:07;;;;;;;6.22;4.65;;;;;;;;;;5073470;28;20387;-83
2023/03/18 04:05:33;;;;;;;5.95;4.70;;;;;;;;;;5073411;28;20868;-83
2023/03/18 04:07:59;;;;;;;5.28;4.78;;;;;;;;;;5073404;28;20379;-83
2023/03/18 04:10:26;;;;;;;5.40;4.90;;;;;;;;;;5073576;28;20391;-82
2023/03/18 04:12:53;;;;;;;5.85;5.20;;;;;;;;;;5073383;28;20390;-85
2023/03/18 04:15:20;;;;;;;5.70;5.10;;;;;;;;;;5073383;28;20568;-84
2023/03/18 04:17:47;;;;;;;6.07;5.10;;;;;;;;;;5073140;28;20433;-85
2023/03/18 04:20:13;;;;;;;5.30;4.80;;;;;;;;;;5073098;28;20494;-84
2023/03/18 04:22:40;;;;;;;5.60;5.00;;;;;;;;;;5072883;28;20388;-84
2023/03/18 04:25:07;;;;;;;5.47;4.97;;;;;;;;;;5073221;28;20384;-85
2023/03/18 04:27:33;;;;;;;5.30;4.80;;;;;;;;;;5073039;28;20421;-84
2023/03/18 04:29:59;;;;;;;5.55;5.05;;;;;;;;;;5073108;28;20507;-84
2023/03/18 04:32:25;;;;;;;5.43;4.90;;;;;;;;;;5072898;28;20386;-85
2023/03/18 04:34:51;;;;;;;5.90;5.13;;;;;;;;;;5072793;28;20388;-85
2023/03/18 04:37:19;;;;;;;7.63;5.03;;;;;;;;;;5072895;28;20376;-85
2023/03/18 04:39:46;;;;;;;5.22;4.70;;;;;;;;;;5072589;28;20398;-85
2023/03/18 04:42:12;;;;;;;5.70;5.07;;;;;;;;;;5072028;28;20406;-84
2023/03/18 04:44:38;;;;;;;5.20;4.70;;;;;;;;;;5072572;28;20388;-85
2023/03/18 04:47:04;;;;;;;6.22;4.82;;;;;;;;;;5072689;28;20910;-85
2023/03/18 04:49:30;;;;;;;5.57;5.07;;;;;;;;;;5072630;28;20736;-84
2023/03/18 04:51:56;;;;;;;5.38;4.88;;;;;;;;;;5072302;28;20372;-84
2023/03/18 04:54:22;;;;;;;5.88;4.68;;;;;;;;;;5072279;28;20880;-84
2023/03/18 04:56:48;;;;;;;6.87;4.97;;;;;;;;;;5072333;28;20376;-85
2023/03/18 04:59:14;;;;;;;5.63;5.07;;;;;;;;;;5072288;28;20387;-84
2023/03/18 05:01:40;;;;;;;5.68;5.07;;;;;;;;;;5071359;28;20399;-85
2023/03/18 05:04:07;;;;;;;5.88;5.00;;;;;;;;;;5072442;28;20386;-85
2023/03/18 05:06:33;;;;;;;6.80;4.88;;;;;;;;;;5072302;28;20368;-85
2023/03/18 05:08:59;;;;;;;5.07;4.65;;;;;;;;;;5071744;28;20404;-85
2023/03/18 05:11:26;;;;;;;4.95;4.45;;;;;;;;;;5072002;28;20395;-84
2023/03/18 05:13:53;;;;;;;5.65;5.03;;;;;;;;;;5061433;28;20388;-85
2023/03/18 05:16:18;;;;;;;5.00;4.43;;;;;;;;;;5067277;28;20380;-84
2023/03/18 05:18:45;;;;;;;6.10;5.00;;;;;;;;;;5071765;28;20734;-84
2023/03/18 05:21:11;;;;;;;5.65;5.15;;;;;;;;;;5071923;28;20396;-84
2023/03/18 05:23:40;;;;;;;5.40;4.50;;;;;;;;;;5068550;28;20425;-83
2023/03/18 05:26:06;;;;;;;5.05;4.47;;;;;;;;;;5056254;28;20384;-84
2023/03/18 05:28:33;;;;;;;4.80;4.40;;;;;;;;;;5071471;28;20376;-84
2023/03/18 05:30:59;;;;;;;5.13;4.28;;;;;;;;;;5070596;28;20880;-84
2023/03/18 05:33:25;;;;;;;4.28;3.88;;;;;;;;;;5071576;28;20868;-83
2023/03/18 05:35:51;;;;;;;5.03;4.57;;;;;;;;;;5070828;28;20467;-84
2023/03/18 05:38:17;;;;;;;4.25;3.85;;;;;;;;;;5070742;28;20384;-83
2023/03/18 05:40:44;;;;;;;5.20;4.10;;;;;;;;;;5072881;28;20399;-84
2023/03/18 05:43:10;;;;;;;4.33;3.57;;;;;;;;;;5072451;28;20583;-84
2023/03/18 05:45:37;;;;;;;3.80;3.40;;;;;;;;;;5077187;28;20486;-83
2023/03/18 05:48:03;;;;;;;4.78;4.25;;;;;;;;;;5083677;28;20887;-83
2023/03/18 05:50:34;;;;;;;5.55;3.70;;;;;;;;;;5078978;28;20435;-83
2023/03/18 05:53:00;;;;;;;5.95;4.50;;;;;;;;;;5075108;28;20383;-83
2023/03/18 05:55:27;;;;;;;4.93;4.20;;;;;;;;;;5073024;28;20375;-84
2023/03/18 05:57:53;;;;;;;4.82;3.88;;;;;;;;;;5071491;28;20399;-83
2023/03/18 06:00:19;;;;;;;4.05;3.65;;;;;;;;;;5071329;28;20403;-83
2023/03/18 06:02:46;;;;;;;4.15;3.75;;;;;;;;;;5070305;28;20384;-83
2023/03/18 06:05:12;;;;;;;4.50;3.67;;;;;;;;;;5070662;28;20868;-84
2023/03/18 06:07:38;;;;;;;5.63;3.70;;;;;;;;;;5070243;28;20375;-84
2023/03/18 06:10:05;;;;;;;4.22;3.83;;;;;;;;;;5070476;28;20891;-83
2023/03/18 06:12:31;;;;;;;3.60;3.30;;;;;;;;;;5070247;28;20856;-84
2023/03/18 06:14:57;;;;;;;4.50;3.50;;;;;;;;;;5070372;28;20465;-84
2023/03/18 06:17:23;;;;;;;6.78;4.03;;;;;;;;;;5070257;28;20387;-83
2023/03/18 06:19:49;;;;;;;5.13;3.67;;;;;;;;;;5069889;28;20384;-83
2023/03/18 06:22:15;;;;;;;4.38;3.88;;;;;;;;;;5070329;28;20412;-85
2023/03/18 06:24:41;;;;;;;4.20;3.80;;;;;;;;;;5070107;28;20380;-84
2023/03/18 06:27:07;;;;;;;4.03;3.50;;;;;;;;;;5070021;28;21221;-84
2023/03/18 06:29:34;;;;;;;4.32;3.92;;;;;;;;;;5070220;28;20387;-84
2023/03/18 06:32:01;;;;;;;4.25;3.70;;;;;;;;;;5069418;28;20437;-83
2023/03/18 06:34:26;;;;;;;5.55;3.80;;;;;;;;;;5069874;28;20857;-83
2023/03/18 06:36:52;;;;;;;4.73;3.80;;;;;;;;;;5070504;28;20436;-83
2023/03/18 06:39:19;;;;;;;5.43;3.50;;;;;;;;;;5073306;28;20785;-83
2023/03/18 06:41:45;;;;;;;4.78;3.40;;;;;;;;;;5056767;28;20416;-83
2023/03/18 06:44:12;;;;;;;3.95;3.30;;;;;;;;;;5074127;28;20479;-83
2023/03/18 06:46:38;;;;;;;8.73;7.82;;;;;;;;;;5060987;28;20379;-84
2023/03/18 06:49:04;;;;;;;12.98;10.13;;;;;;;;;;5064179;28;20740;-83
2023/03/18 06:51:31;;;;;;;6.82;5.85;;;;;;;;;;5072275;28;20727;-83
2023/03/18 06:53:57;;;;;;;6.05;4.18;;;;;;;;;;5074682;28;20387;-83
2023/03/18 06:56:24;;;;;;;4.45;4.05;;;;;;;;;;5064590;28;20435;-83
2023/03/18 06:58:50;;;;;;;3.75;3.30;;;;;;;;;;5066275;28;20394;-82
2023/03/18 07:01:16;;;;;;;4.27;3.30;;;;;;;;;;5066972;28;20403;-83
2023/03/18 07:03:42;;;;;;;4.00;3.40;;;;;;;;;;5073866;28;20518;-82
2023/03/18 07:06:09;;;;;;;3.67;3.37;;;;;;;;;;5074568;28;20363;-83
2023/03/18 07:08:35;;;;;;;3.90;3.30;;;;;;;;;;5074646;28;20473;-82
2023/03/18 07:11:02;;;;;;;3.80;3.03;;;;;;;;;;5074586;28;20378;-83
2023/03/18 07:13:28;;;;;;;3.92;2.92;;;;;;;;;;5074522;28;20747;-83
2023/03/18 07:15:55;;;;;;;5.15;3.00;;;;;;;;;;5074353;28;20384;-83
2023/03/18 07:18:21;;;;;;;3.67;2.97;;;;;;;;;;5074435;28;20856;-82
2023/03/18 07:20:48;;;;;;;4.28;3.10;;;;;;;;;;5074162;28;20411;-82
2023/03/18 07:23:14;;;;;;;4.32;3.22;;;;;;;;;;5074198;28;20368;-82
2023/03/18 07:25:40;;;;;;;6.50;3.50;;;;;;;;;;5073886;28;20463;-82
2023/03/18 07:28:07;;;;;;;3.85;3.40;;;;;;;;;;5074123;28;20451;-82
2023/03/18 07:30:33;;;;;;;4.00;3.53;;;;;;;;;;5074155;28;20499;-82
2023/03/18 07:32:59;;;;;;;4.40;3.50;;;;;;;;;;5073705;28;20762;-83
2023/03/18 07:35:26;;;;;;;4.40;3.67;;;;;;;;;;5074009;28;20903;-83
2023/03/18 07:37:52;;;;;;;5.07;4.22;;;;;;;;;;5073051;28;20415;-83
2023/03/18 07:40:18;;;;;;;5.65;4.40;;;;;;;;;;5073686;28;20434;-83
2023/03/18 07:42:44;;;;;;;7.10;4.55;;;;;;;;;;5072407;28;20805;-83
2023/03/18 07:45:10;;;;;;;5.07;4.55;;;;;;;;;;5073674;28;20462;-83
2023/03/18 07:47:37;;;;;;;5.88;4.60;;;;;;;;;;5073790;28;20375;-83
2023/03/18 07:50:03;;;;;;;4.90;4.40;;;;;;;;;;5073381;28;20380;-83
2023/03/18 07:52:30;;;;;;;5.85;4.88;;;;;;;;;;5073712;28;20413;-83
2023/03/18 07:54:56;;;;;;;6.78;5.53;;;;;;;;;;5073260;28;20403;-83
2023/03/18 07:57:22;;;;;;;6.78;6.00;;;;;;;;;;5073403;28;20500;-83
2023/03/18 07:59:48;;;;;;;8.60;7.53;;;;;;;;;;5073467;28;20384;-83
2023/03/18 08:02:15;;;;;;;9.27;8.48;;;;;;;;;;5072952;28;20376;-83
2023/03/18 08:04:42;;;;;;;11.23;9.70;;;;;;;;;;5073683;28;20702;-82
2023/03/18 08:07:08;;;;;;;9.75;8.95;;;;;;;;;;5073306;28;20856;-83
2023/03/18 08:09:35;;;;;;;9.40;8.45;;;;;;;;;;5073422;28;20444;-83
2023/03/18 08:12:01;;;;;;;8.95;8.10;;;;;;;;;;5073235;28;20394;-83
2023/03/18 08:14:27;;;;;;;8.70;7.80;;;;;;;;;;5073117;28;20407;-82
2023/03/18 08:16:53;;;;;;;9.13;8.13;;;;;;;;;;5073172;28;20392;-83
2023/03/18 08:19:20;;;;;;;10.97;9.23;;;;;;;;;;5073002;28;20384;-83
2023/03/18 08:21:46;;;;;;;12.98;11.68;;;;;;;;;;5072939;28;20407;-83
2023/03/18 08:24:12;;;;;;;13.70;11.75;;;;;;;;;;5073113;28;20459;-83
2023/03/18 08:26:39;;;;;;;11.93;10.73;;;;;;;;;;5072877;28;20391;-83
2023/03/18 08:29:04;;;;;;;10.98;9.88;;;;;;;;;;5072644;28;20380;-83
2023/03/18 08:31:31;;;;;;;11.25;10.18;;;;;;;;;;5071875;28;20970;-82
2023/03/18 08:33:58;;;;;;;11.32;10.13;;;;;;;;;;5072556;28;20387;-82
2023/03/18 08:36:24;;;;;;;14.20;9.85;;;;;;;;;;5072027;28;20418;-82
2023/03/18 08:38:50;;;;;;;10.93;9.82;;;;;;;;;;5072719;28;20423;-83
2023/03/18 08:41:16;;;;;;;11.48;10.38;;;;;;;;;;5072494;28;20450;-80
2023/03/18 08:43:43;;;;;;;11.10;10.10;;;;;;;;;;5071822;28;20423;-79
2023/03/18 08:46:09;;;;;;;11.82;10.52;;;;;;;;;;5072546;28;20376;-80
2023/03/18 08:48:35;;;;;;;12.05;10.85;;;;;;;;;;5072502;28;20386;-80
2023/03/18 08:51:09;;;;;;;15.45;11.30;;;;;;;;;;5072037;28;20410;-79
2023/03/18 08:53:35;;;;;;;11.95;10.65;;;;;;;;;;5071142;28;20784;-79
2023/03/18 08:56:02;;;;;;;13.10;11.75;;;;;;;;;;5071972;28;20466;-79
2023/03/18 08:58:28;;;;;;;12.90;11.63;;;;;;;;;;5071532;28;20434;-79
2023/03/18 09:00:54;;;;;;;14.02;12.50;;;;;;;;;;5064177;28;20510;-79
2023/03/18 09:03:21;;;;;;;14.20;12.13;;;;;;;;;;5058932;28;20452;-79
2023/03/18 09:05:51;;;;;;;15.93;13.17;;;;;;;;;;5059590;28;20382;-80
2023/03/18 09:08:17;;;;;;;14.52;12.60;;;;;;;;;;5072040;28;20462;-80
2023/03/18 09:10:47;;;;;;;14.25;12.73;;;;;;;;;;5065088;28;20389;-79
2023/03/18 09:13:13;;;;;;;17.33;13.57;;;;;;;;;;5069869;28;20424;-79
2023/03/18 09:15:40;;;;;;;17.00;14.60;;;;;;;;;;5064374;28;20389;-79
2023/03/18 09:18:07;;;;;;;15.95;14.07;;;;;;;;;;5067022;28;20757;-78
2023/03/18 09:20:33;;;;;;;15.00;13.48;;;;;;;;;;5058634;28;20397;-79
2023/03/18 09:22:59;;;;;;;15.20;13.32;;;;;;;;;;5061512;28;20368;-79
2023/03/18 09:25:25;;;;;;;18.10;13.20;;;;;;;;;;5062602;28;20375;-79
2023/03/18 09:27:52;;;;;;;32.22;22.77;;;;;;;;;;5071814;28;20384;-79
2023/03/18 09:30:18;;;;;;;22.20;17.58;;;;;;;;;;5072008;28;20407;-80
2023/03/18 09:32:44;;;;;;;16.23;14.65;;;;;;;;;;5071444;28;20406;-80
2023/03/18 09:35:11;;;;;;;17.17;15.38;;;;;;;;;;5071442;28;20941;-79
2023/03/18 09:37:37;;;;;;;13.35;12.02;;;;;;;;;;5071740;28;20426;-79
2023/03/18 09:40:03;;;;;;;15.15;13.80;;;;;;;;;;5071501;28;20483;-79
2023/03/18 09:42:39;;;;;;;18.75;16.73;;;;;;;;;;5071277;28;20445;-79
2023/03/18 09:45:40;;;;;;;17.85;15.95;;;;;;;;;;5071202;28;20394;-79
2023/03/18 09:48:25;;;;;;;18.48;15.57;;;;;;;;;;4990093;28;20402;-80
2023/03/18 09:51:03;;;;;;;20.98;17.00;;;;;;;;;;5060977;28;20391;-79
2023/03/18 09:53:41;;;;;;;23.20;19.30;;;;;;;;;;5071009;28;20384;-80
2023/03/18 09:56:12;;;;;;;40.67;26.27;;;;;;;;;;5062791;28;20368;-80
2023/03/18 09:58:56;;;;;;;28.13;20.15;;;;;;;;;;5071224;28;20384;-80
2023/03/18 10:01:23;;;;;;;14.30;12.80;;;;;;;;;;5071164;28;20734;-80
2023/03/18 10:03:49;;;;;;;12.53;11.03;;;;;;;;;;5071280;28;20522;-80
2023/03/18 10:06:17;;;;;;;12.50;11.15;;;;;;;;;;5071392;28;20510;-80
2023/03/18 10:08:49;;;;;;;20.10;12.80;;;;;;;;;;5071236;28;20387;-80
2023/03/18 10:11:30;;;;;;;10.63;8.98;;;;;;;;;;5072045;28;20462;-80
2023/03/18 10:14:00;;;;;;;10.98;9.55;;;;;;;;;;5073027;28;20445;-80
2023/03/18 10:16:28;;;;;;;10.82;9.43;;;;;;;;;;5071182;28;20942;-80
2023/03/18 10:18:55;;;;;;;10.23;8.82;;;;;;;;;;5071171;28;20391;-80
2023/03/18 10:21:42;;;;;;;24.65;17.15;;;;;;;;;;5070916;28;20400;-80
2023/03/18 10:24:28;;;;;;;21.75;14.15;;;;;;;;;;5072107;28;20368;-80
2023/03/18 10:27:07;;;;;;;9.73;8.50;;;;;;;;;;5071061;28;20372;-80
2023/03/18 10:29:33;;;;;;;8.73;7.53;;;;;;;;;;5070881;28;20722;-80
2023/03/18 10:32:05;;;;;;;7.53;5.32;;;;;;;;;;5072467;28;20887;-80
2023/03/18 10:34:48;;;;;;;5.47;4.30;;;;;;;;;;5072011;28;20459;-80
2023/03/18 10:37:21;;;;;;;6.82;5.00;;;;;;;;;;5071250;28;20394;-80
2023/03/18 10:39:48;;;;;;;6.30;5.50;;;;;;;;;;5070799;28;20380;-80
2023/03/18 10:42:25;;;;;;;6.20;5.47;;;;;;;;;;5070623;28;20478;-80
2023/03/18 10:44:52;;;;;;;7.28;4.80;;;;;;;;;;5070827;28;20533;-80
2023/03/18 10:47:21;;;;;;;5.20;4.30;;;;;;;;;;5070410;28;20379;-80
2023/03/18 10:49:57;;;;;;;5.07;4.57;;;;;;;;;;5070765;28;20379;-80
2023/03/18 10:52:23;;;;;;;6.53;4.38;;;;;;;;;;5070604;28;20398;-80
2023/03/18 10:54:51;;;;;;;5.25;4.40;;;;;;;;;;5070691;28;20865;-80
2023/03/18 10:57:18;;;;;;;6.20;4.30;;;;;;;;;;5070259;28;20419;-83
2023/03/18 10:59:44;;;;;;;5.05;4.28;;;;;;;;;;5070058;28;20379;-83
2023/03/18 11:02:19;;;;;;;6.85;4.57;;;;;;;;;;5070703;28;20433;-84
2023/03/18 11:04:51;;;;;;;8.20;4.77;;;;;;;;;;5070197;28;20484;-81
2023/03/18 11:07:23;;;;;;;7.53;4.35;;;;;;;;;;5069164;28;20467;-82
2023/03/18 11:09:49;;;;;;;5.55;4.22;;;;;;;;;;5069719;28;20998;-81
2023/03/18 11:12:17;;;;;;;6.32;4.30;;;;;;;;;;5064564;28;20857;-83
2023/03/18 11:14:47;;;;;;;5.85;4.38;;;;;;;;;;5064920;28;20414;-84
2023/03/18 11:17:22;;;;;;;6.77;4.27;;;;;;;;;;5058774;28;20392;-84
2023/03/18 11:20:10;;;;;;;8.37;5.00;;;;;;;;;;5068996;28;20368;-85
2023/03/18 11:22:37;;;;;;;5.25;4.28;;;;;;;;;;5057980;28;20387;-84
2023/03/18 11:25:16;;;;;;;6.70;4.40;;;;;;;;;;5072344;28;20380;-84
2023/03/18 11:27:57;;;;;;;5.22;4.10;;;;;;;;;;5073645;28;20864;-84
2023/03/18 11:30:30;;;;;;;6.25;4.20;;;;;;;;;;5048582;28;20403;-83
2023/03/18 11:32:58;;;;;;;6.95;4.05;;;;;;;;;;5070223;28;21055;-83
2023/03/18 11:35:36;;;;;;;5.85;4.22;;;;;;;;;;5067010;28;20751;-84
2023/03/18 11:38:03;;;;;;;5.38;3.72;;;;;;;;;;5073194;28;20421;-83
2023/03/18 11:40:30;;;;;;;4.18;3.22;;;;;;;;;;5070464;28;20418;-83
2023/03/18 11:42:58;;;;;;;4.63;3.20;;;;;;;;;;5069841;28;20415;-83
2023/03/18 11:45:28;;;;;;;4.32;3.03;;;;;;;;;;5072488;28;20380;-83
2023/03/18 11:47:54;;;;;;;4.85;3.08;;;;;;;;;;5073796;28;20372;-83
2023/03/18 11:50:25;;;;;;;4.33;2.73;;;;;;;;;;5055964;28;20957;-83
2023/03/18 11:52:57;;;;;;;7.93;3.10;;;;;;;;;;5055380;28;20390;-84
2023/03/18 11:55:29;;;;;;;3.83;2.70;;;;;;;;;;5073694;28;20834;-84
2023/03/18 11:58:02;;;;;;;2.75;2.28;;;;;;;;;;5073776;28;20479;-84
2023/03/18 12:00:32;;;;;;;3.83;2.88;;;;;;;;;;5073079;28;20416;-83
2023/03/18 12:03:14;;;;;;;4.75;3.03;;;;;;;;;;5061098;28;20367;-83
2023/03/18 12:05:40;;;;;;;4.10;2.50;;;;;;;;;;5063004;28;20811;-82
2023/03/18 12:08:19;;;;;;;2.85;2.53;;;;;;;;;;5073420;28;20478;-81
2023/03/18 12:10:50;;;;;;;3.38;2.00;;;;;;;;;;5073217;28;20383;-82
2023/03/18 12:13:24;;;;;;;3.05;2.03;;;;;;;;;;5073380;28;20376;-83
2023/03/18 12:16:10;;;;;;;3.20;2.33;;;;;;;;;;5069077;28;20368;-84
2023/03/18 12:19:03;;;;;;;2.97;2.30;;;;;;;;;;5072964;28;20387;-84
2023/03/18 12:21:29;;;;;;;3.35;2.70;;;;;;;;;;5059614;28;20399;-84
2023/03/18 12:24:04;;;;;;;3.42;2.70;;;;;;;;;;5073303;28;20861;-84
2023/03/18 12:26:35;;;;;;;3.40;2.35;;;;;;;;;;5072768;28;20394;-83
2023/03/18 12:29:04;;;;;;;4.10;2.55;;;;;;;;;;5073283;28;20410;-84
2023/03/18 12:31:30;;;;;;;4.50;2.50;;;;;;;;;;5072986;28;20439;-84
2023/03/18 12:33:57;;;;;;;2.60;2.00;;;;;;;;;;5072956;28;20379;-84
2023/03/18 12:36:43;;;;;;;3.15;1.70;;;;;;;;;;5071149;28;20445;-84
2023/03/18 12:39:28;;;;;;;2.38;2.08;;;;;;;;;;5073764;28;20379;-84
2023/03/18 12:42:09;;;;;;;7.50;2.20;;;;;;;;;;5073819;28;20465;-83
2023/03/18 12:44:36;;;;;;;3.13;2.28;;;;;;;;;;5078299;28;20956;-82
2023/03/18 12:47:08;;;;;;;2.78;2.30;;;;;;;;;;5073109;28;20386;-83
2023/03/18 12:49:34;;;;;;;3.60;2.70;;;;;;;;;;5073819;28;20475;-85
2023/03/18 12:52:02;;;;;;;4.27;2.97;;;;;;;;;;5070824;28;20471;-83
2023/03/18 12:54:49;;;;;;;2.78;2.35;;;;;;;;;;5067777;28;20387;-84
2023/03/18 12:57:23;;;;;;;3.35;2.50;;;;;;;;;;5069698;28;20379;-84
2023/03/18 12:59:55;;;;;;;3.20;2.57;;;;;;;;;;5072442;28;20434;-84
2023/03/18 13:02:43;;;;;;;109.10;9.68;;;;;;;;;;5052459;28;20419;-84
2023/03/18 13:05:32;;;;;;;4.78;4.38;;;;;;;;;;5071662;28;20379;-82
2023/03/18 13:08:01;;;;;;;5.03;4.43;;;;;;;;;;5072584;28;20767;-80
2023/03/18 13:10:29;;;;;;;10.88;9.77;;;;;;;;;;5066372;28;20406;-80
2023/03/18 13:12:58;;;;;;;24.35;6.88;;;;;;;;;;5070377;28;20376;-80
2023/03/18 13:15:32;;;;;;;3.50;2.50;;;;;;;;;;5072059;28;21047;-80
2023/03/18 13:18:24;;;;;;;21.48;14.80;;;;;;;;;;5068368;28;20383;-80
2023/03/18 13:20:52;;;;;;;6.43;5.63;;;;;;;;;;5059658;28;20452;-80
2023/03/18 13:23:21;;;;;;;7.68;5.95;;;;;;;;;;5067779;28;20417;-80
2023/03/18 13:25:47;;;;;;;3.65;2.65;;;;;;;;;;5071612;28;20415;-79
2023/03/18 13:28:24;;;;;;;3.55;2.20;;;;;;;;;;5069863;28;20946;-79
2023/03/18 13:30:59;;;;;;;4.53;2.90;;;;;;;;;;5069513;28;20966;-79
2023/03/18 13:33:34;;;;;;;4.18;2.47;;;;;;;;;;5061892;28;20921;-79
2023/03/18 13:36:19;;;;;;;5.47;3.73;;;;;;;;;;5071504;28;20406;-79
2023/03/18 13:39:04;;;;;;;3.37;2.27;;;;;;;;;;5070697;28;21231;-79
2023/03/18 13:41:49;;;;;;;3.10;2.70;;;;;;;;;;5070797;28;20494;-79
2023/03/18 13:44:22;;;;;;;4.07;2.58;;;;;;;;;;5063201;28;20418;-79
2023/03/18 13:46:53;;;;;;;3.20;2.88;;;;;;;;;;5070958;28;20418;-80
2023/03/18 13:49:22;;;;;;;4.03;2.90;;;;;;;;;;5063005;28;20709;-80
2023/03/18 13:51:50;;;;;;;3.05;2.72;;;;;;;;;;5071237;28;20411;-80
2023/03/18 13:54:17;;;;;;;3.47;2.80;;;;;;;;;;5071333;28;20379;-81
2023/03/18 13:56:43;;;;;;;4.93;4.43;;;;;;;;;;5070784;28;20379;-80
2023/03/18 13:59:42;;;;;;;4.53;2.88;;;;;;;;;;5071064;28;20869;-80
2023/03/18 14:02:27;;;;;;;3.53;3.15;;;;;;;;;;5065880;28;20403;-80
2023/03/18 14:04:55;;;;;;;5.00;2.80;;;;;;;;;;5071232;28;20384;-81
2023/03/18 14:07:22;;;;;;;4.75;3.35;;;;;;;;;;5070958;28;20390;-80
2023/03/18 14:09:48;;;;;;;3.33;2.97;;;;;;;;;;5071105;28;20451;-80
2023/03/18 14:12:14;;;;;;;4.38;3.20;;;;;;;;;;5070890;28;20479;-80
2023/03/18 14:14:41;;;;;;;10.03;7.87;;;;;;;;;;5071074;28;20865;-80
2023/03/18 14:17:17;;;;;;;26.50;16.63;;;;;;;;;;5070701;28;20433;-80
2023/03/18 14:19:44;;;;;;;6.07;5.32;;;;;;;;;;5070815;28;20402;-80
2023/03/18 14:22:25;;;;;;;8.03;5.83;;;;;;;;;;5070672;28;20738;-80
2023/03/18 14:25:29;;;;;;;5.78;4.68;;;;;;;;;;5071051;28;20808;-80
2023/03/18 14:28:10;;;;;;;7.40;4.75;;;;;;;;;;4988679;28;20950;-80
2023/03/18 14:30:36;;;;;;;3.67;3.10;;;;;;;;;;4989368;28;20398;-80
2023/03/18 14:33:17;;;;;;;4.07;3.42;;;;;;;;;;4989252;28;20465;-80
2023/03/18 14:36:02;;;;;;;9.95;6.72;;;;;;;;;;4989349;28;20955;-79
2023/03/18 14:38:37;;;;;;;4.07;2.33;;;;;;;;;;4989439;28;20393;-80
2023/03/18 14:41:04;;;;;;;26.25;15.23;;;;;;;;;;4989340;28;20406;-79
2023/03/18 14:43:36;;;;;;;37.37;18.53;;;;;;;;;;4990198;28;20986;-81
2023/03/18 14:46:07;;;;;;;19.77;10.65;;;;;;;;;;4988448;28;20430;-81
2023/03/18 14:48:34;;;;;;;31.40;16.45;;;;;;;;;;4989193;28;20409;-81